sensor_id;sensor_type;location;lat;lon;timestamp;pressure;altitude;pressure_sealevel;temperature;humidity
39141;BME280;24875;48.436;10.298;2022-08-19T00:00:43;95757.56;;;19.93;100.00
39141;BME280;24875;48.436;10.298;2022-08-19T00:03:10;95753.44;;;20.02;100.00
39141;BME280;24875;48.436;10.298;2022-08-19T00:05:36;95762.91;;;19.93;100.00
39141;BME280;24875;48.436;10.298;2022-08-19T00:08:04;95765.59;;;19.93;100.00
39141;BME280;24875;48.436;10.298;2022-08-19T00:10:30;95763.31;;;19.85;100.00
39141;BME280;24875;48.436;10.298;2022-08-19T00:12:57;95766.75;;;19.81;100.00
39141;BME280;24875;48.436;10.298;2022-08-19T00:15:23;95758.91;;;19.91;100.00
39141;BME280;24875;48.436;10.298;2022-08-19T00:17:50;95755.28;;;19.85;100.00
39141;BME280;24875;48.436;10.298;2022-08-19T00:20:19;95750.78;;;19.86;100.00
39141;BME280;24875;48.436;10.298;2022-08-19T00:22:47;95759.84;;;19.68;100.00
39141;BME280;24875;48.436;10.298;2022-08-19T00:25:16;95749.22;;;19.90;100.00
39141;BME280;24875;48.436;10.298;2022-08-19T00:27:43;95748.81;;;19.81;100.00
39141;BME280;24875;48.436;10.298;2022-08-19T00:30:10;95757.16;;;19.85;100.00
39141;BME280;24875;48.436;10.298;2022-08-19T00:32:38;95762.78;;;20.00;100.00
39141;BME280;24875;48.436;10.298;2022-08-19T00:35:05;95762.38;;;19.91;100.00
39141;BME280;24875;48.436;10.298;2022-08-19T00:37:32;95763.50;;;19.95;100.00
39141;BME280;24875;48.436;10.298;2022-08-19T00:40:00;95756.91;;;19.86;100.00
39141;BME280;24875;48.436;10.298;2022-08-19T00:42:29;95761.31;;;19.92;100.00
39141;BME280;24875;48.436;10.298;2022-08-19T00:44:55;95774.09;;;19.90;100.00
39141;BME280;24875;48.436;10.298;2022-08-19T00:47:22;95769.44;;;19.97;100.00
39141;BME280;24875;48.436;10.298;2022-08-19T00:49:51;95783.53;;;19.93;100.00
39141;BME280;24875;48.436;10.298;2022-08-19T00:52:23;95775.41;;;20.04;100.00
39141;BME280;24875;48.436;10.298;2022-08-19T00:54:50;95780.75;;;20.04;100.00
39141;BME280;24875;48.436;10.298;2022-08-19T00:57:23;95781.25;;;20.01;100.00
39141;BME280;24875;48.436;10.298;2022-08-19T00:59:55;95772.97;;;19.86;100.00
39141;BME280;24875;48.436;10.298;2022-08-19T01:02:23;95775.72;;;19.58;100.00
39141;BME280;24875;48.436;10.298;2022-08-19T01:04:49;95770.63;;;19.41;100.00
39141;BME280;24875;48.436;10.298;2022-08-19T01:07:16;95775.72;;;19.26;100.00
39141;BME280;24875;48.436;10.298;2022-08-19T01:09:43;95770.16;;;19.27;100.00
39141;BME280;24875;48.436;10.298;2022-08-19T01:12:10;95781.88;;;19.26;100.00
39141;BME280;24875;48.436;10.298;2022-08-19T01:14:39;95774.19;;;19.46;100.00
39141;BME280;24875;48.436;10.298;2022-08-19T01:17:08;95780.09;;;19.48;100.00
39141;BME280;24875;48.436;10.298;2022-08-19T01:19:36;95779.84;;;19.33;100.00
39141;BME280;24875;48.436;10.298;2022-08-19T01:22:09;95777.69;;;19.47;100.00
39141;BME280;24875;48.436;10.298;2022-08-19T01:24:39;95775.34;;;19.34;100.00
39141;BME280;24875;48.436;10.298;2022-08-19T01:27:06;95781.41;;;19.46;100.00
39141;BME280;24875;48.436;10.298;2022-08-19T01:29:38;95781.06;;;19.58;100.00
39141;BME280;24875;48.436;10.298;2022-08-19T01:32:06;95772.09;;;19.48;100.00
39141;BME280;24875;48.436;10.298;2022-08-19T01:34:33;95770.31;;;19.54;100.00
39141;BME280;24875;48.436;10.298;2022-08-19T01:37:06;95760.97;;;19.72;100.00
39141;BME280;24875;48.436;10.298;2022-08-19T01:39:36;95765.63;;;19.60;100.00
39141;BME280;24875;48.436;10.298;2022-08-19T01:42:05;95765.78;;;19.54;100.00
39141;BME280;24875;48.436;10.298;2022-08-19T01:44:32;95762.44;;;19.47;100.00
39141;BME280;24875;48.436;10.298;2022-08-19T01:47:01;95760.69;;;19.53;100.00
39141;BME280;24875;48.436;10.298;2022-08-19T01:49:29;95764.50;;;19.57;100.00
39141;BME280;24875;48.436;10.298;2022-08-19T01:51:56;95768.53;;;19.43;100.00
39141;BME280;24875;48.436;10.298;2022-08-19T01:54:24;95773.47;;;19.51;100.00
39141;BME280;24875;48.436;10.298;2022-08-19T01:56:51;95758.16;;;19.62;100.00
39141;BME280;24875;48.436;10.298;2022-08-19T01:59:22;95758.88;;;19.74;100.00
39141;BME280;24875;48.436;10.298;2022-08-19T02:01:50;95768.75;;;19.57;100.00
39141;BME280;24875;48.436;10.298;2022-08-19T02:04:16;95777.69;;;19.63;100.00
39141;BME280;24875;48.436;10.298;2022-08-19T02:06:43;95783.28;;;19.61;100.00
39141;BME280;24875;48.436;10.298;2022-08-19T02:09:09;95791.78;;;19.58;100.00
39141;BME280;24875;48.436;10.298;2022-08-19T02:11:36;95799.38;;;19.66;100.00
39141;BME280;24875;48.436;10.298;2022-08-19T02:14:05;95794.69;;;19.73;100.00
39141;BME280;24875;48.436;10.298;2022-08-19T02:16:34;95788.53;;;19.73;100.00
39141;BME280;24875;48.436;10.298;2022-08-19T02:19:01;95786.75;;;19.62;100.00
39141;BME280;24875;48.436;10.298;2022-08-19T02:21:29;95770.56;;;19.68;100.00
39141;BME280;24875;48.436;10.298;2022-08-19T02:23:56;95769.59;;;19.58;100.00
39141;BME280;24875;48.436;10.298;2022-08-19T02:26:23;95775.03;;;19.63;100.00
39141;BME280;24875;48.436;10.298;2022-08-19T02:28:52;95773.81;;;19.70;100.00
39141;BME280;24875;48.436;10.298;2022-08-19T02:31:21;95765.78;;;19.70;100.00
39141;BME280;24875;48.436;10.298;2022-08-19T02:33:49;95754.25;;;19.70;100.00
39141;BME280;24875;48.436;10.298;2022-08-19T02:36:17;95754.59;;;19.57;100.00
39141;BME280;24875;48.436;10.298;2022-08-19T02:38:44;95751.22;;;19.61;100.00
39141;BME280;24875;48.436;10.298;2022-08-19T02:41:12;95746.50;;;19.68;100.00
39141;BME280;24875;48.436;10.298;2022-08-19T02:43:40;95744.47;;;19.59;100.00
39141;BME280;24875;48.436;10.298;2022-08-19T02:46:12;95744.94;;;19.72;100.00
39141;BME280;24875;48.436;10.298;2022-08-19T02:48:38;95753.56;;;19.58;100.00
39141;BME280;24875;48.436;10.298;2022-08-19T02:51:06;95747.63;;;19.72;100.00
39141;BME280;24875;48.436;10.298;2022-08-19T02:53:33;95753.56;;;19.58;100.00
39141;BME280;24875;48.436;10.298;2022-08-19T02:55:59;95755.97;;;19.59;100.00
39141;BME280;24875;48.436;10.298;2022-08-19T02:58:26;95764.16;;;19.53;100.00
39141;BME280;24875;48.436;10.298;2022-08-19T03:00:54;95762.78;;;19.67;100.00
39141;BME280;24875;48.436;10.298;2022-08-19T03:03:21;95764.88;;;19.65;100.00
39141;BME280;24875;48.436;10.298;2022-08-19T03:05:48;95768.91;;;19.67;100.00
39141;BME280;24875;48.436;10.298;2022-08-19T03:08:16;95767.97;;;19.73;100.00
39141;BME280;24875;48.436;10.298;2022-08-19T03:10:44;95761.31;;;19.59;100.00
39141;BME280;24875;48.436;10.298;2022-08-19T03:13:12;95768.38;;;19.65;100.00
39141;BME280;24875;48.436;10.298;2022-08-19T03:15:41;95763.03;;;19.65;100.00
39141;BME280;24875;48.436;10.298;2022-08-19T03:18:07;95760.28;;;19.60;100.00
39141;BME280;24875;48.436;10.298;2022-08-19T03:20:40;95753.03;;;19.77;100.00
39141;BME280;24875;48.436;10.298;2022-08-19T03:23:07;95768.03;;;19.62;100.00
39141;BME280;24875;48.436;10.298;2022-08-19T03:25:37;95760.47;;;19.75;100.00
39141;BME280;24875;48.436;10.298;2022-08-19T03:28:05;95762.44;;;19.63;100.00
39141;BME280;24875;48.436;10.298;2022-08-19T03:30:33;95757.09;;;19.63;100.00
39141;BME280;24875;48.436;10.298;2022-08-19T03:33:00;95767.28;;;19.66;100.00
39141;BME280;24875;48.436;10.298;2022-08-19T03:35:27;95765.28;;;19.73;100.00
39141;BME280;24875;48.436;10.298;2022-08-19T03:37:53;95764.69;;;19.71;100.00
39141;BME280;24875;48.436;10.298;2022-08-19T03:40:21;95762.03;;;19.71;100.00
39141;BME280;24875;48.436;10.298;2022-08-19T03:42:49;95760.47;;;19.75;100.00
39141;BME280;24875;48.436;10.298;2022-08-19T03:45:16;95765.28;;;19.73;100.00
39141;BME280;24875;48.436;10.298;2022-08-19T03:47:43;95762.44;;;19.63;100.00
39141;BME280;24875;48.436;10.298;2022-08-19T03:50:10;95758.16;;;19.62;100.00
39141;BME280;24875;48.436;10.298;2022-08-19T03:52:37;95754.75;;;19.51;100.00
39141;BME280;24875;48.436;10.298;2022-08-19T03:55:05;95754.34;;;19.58;100.00
39141;BME280;24875;48.436;10.298;2022-08-19T03:57:32;95753.38;;;19.64;100.00
39141;BME280;24875;48.436;10.298;2022-08-19T04:00:01;95748.13;;;19.69;100.00
39141;BME280;24875;48.436;10.298;2022-08-19T04:02:30;95755.72;;;19.61;100.00
39141;BME280;24875;48.436;10.298;2022-08-19T04:04:56;95754.84;;;19.56;100.00
39141;BME280;24875;48.436;10.298;2022-08-19T04:07:23;95752.25;;;19.60;100.00
39141;BME280;24875;48.436;10.298;2022-08-19T04:09:50;95751.91;;;19.57;100.00
39141;BME280;24875;48.436;10.298;2022-08-19T04:12:17;95754.69;;;19.62;100.00
39141;BME280;24875;48.436;10.298;2022-08-19T04:14:46;95748.28;;;19.63;100.00
39141;BME280;24875;48.436;10.298;2022-08-19T04:17:14;95746.91;;;19.60;100.00
39141;BME280;24875;48.436;10.298;2022-08-19T04:19:40;95742.53;;;19.55;100.00
39141;BME280;24875;48.436;10.298;2022-08-19T04:22:08;95743.28;;;19.50;100.00
39141;BME280;24875;48.436;10.298;2022-08-19T04:24:36;95744.06;;;19.51;100.00
39141;BME280;24875;48.436;10.298;2022-08-19T04:27:03;95743.41;;;19.60;100.00
39141;BME280;24875;48.436;10.298;2022-08-19T04:29:31;95752.88;;;19.51;100.00
39141;BME280;24875;48.436;10.298;2022-08-19T04:31:58;95755.47;;;19.62;100.00
39141;BME280;24875;48.436;10.298;2022-08-19T04:34:28;95755.09;;;19.70;100.00
39141;BME280;24875;48.436;10.298;2022-08-19T04:36:56;95750.78;;;19.69;100.00
39141;BME280;24875;48.436;10.298;2022-08-19T04:39:26;95747.38;;;19.74;100.00
39141;BME280;24875;48.436;10.298;2022-08-19T04:42:15;95752.63;;;19.69;100.00
39141;BME280;24875;48.436;10.298;2022-08-19T04:44:59;95751.22;;;19.61;100.00
39141;BME280;24875;48.436;10.298;2022-08-19T04:47:28;95757.59;;;19.44;100.00
39141;BME280;24875;48.436;10.298;2022-08-19T04:49:58;95771.44;;;19.57;100.00
39141;BME280;24875;48.436;10.298;2022-08-19T04:52:25;95774.59;;;19.55;100.00
39141;BME280;24875;48.436;10.298;2022-08-19T04:54:51;95776.94;;;19.51;100.00
39141;BME280;24875;48.436;10.298;2022-08-19T04:57:18;95788.28;;;19.58;100.00
39141;BME280;24875;48.436;10.298;2022-08-19T04:59:45;95798.50;;;19.61;100.00
39141;BME280;24875;48.436;10.298;2022-08-19T05:02:11;95812.59;;;19.57;100.00
39141;BME280;24875;48.436;10.298;2022-08-19T05:04:37;95806.91;;;19.53;100.00
39141;BME280;24875;48.436;10.298;2022-08-19T05:07:06;95806.84;;;19.64;100.00
39141;BME280;24875;48.436;10.298;2022-08-19T05:09:33;95812.69;;;19.61;100.00
39141;BME280;24875;48.436;10.298;2022-08-19T05:12:00;95810.06;;;19.66;100.00
39141;BME280;24875;48.436;10.298;2022-08-19T05:14:26;95811.06;;;19.60;100.00
39141;BME280;24875;48.436;10.298;2022-08-19T05:16:54;95811.94;;;19.66;100.00
39141;BME280;24875;48.436;10.298;2022-08-19T05:19:21;95820.75;;;19.66;100.00
39141;BME280;24875;48.436;10.298;2022-08-19T05:22:06;95817.63;;;19.69;100.00
39141;BME280;24875;48.436;10.298;2022-08-19T05:24:49;95820.47;;;19.63;100.00
39141;BME280;24875;48.436;10.298;2022-08-19T05:27:15;95827.91;;;19.61;100.00
39141;BME280;24875;48.436;10.298;2022-08-19T05:29:42;95835.13;;;19.60;100.00
39141;BME280;24875;48.436;10.298;2022-08-19T05:32:08;95835.59;;;19.57;100.00
39141;BME280;24875;48.436;10.298;2022-08-19T05:34:36;95829.78;;;19.60;100.00
39141;BME280;24875;48.436;10.298;2022-08-19T05:37:04;95834.72;;;19.68;100.00
39141;BME280;24875;48.436;10.298;2022-08-19T05:39:33;95839.19;;;19.79;100.00
39141;BME280;24875;48.436;10.298;2022-08-19T05:42:02;95842.81;;;19.73;100.00
39141;BME280;24875;48.436;10.298;2022-08-19T05:44:32;95849.78;;;19.74;100.00
39141;BME280;24875;48.436;10.298;2022-08-19T05:47:00;95861.19;;;19.70;100.00
39141;BME280;24875;48.436;10.298;2022-08-19T05:49:27;95845.66;;;19.67;100.00
39141;BME280;24875;48.436;10.298;2022-08-19T05:51:55;95841.19;;;19.72;100.00
39141;BME280;24875;48.436;10.298;2022-08-19T05:54:22;95844.28;;;19.64;100.00
39141;BME280;24875;48.436;10.298;2022-08-19T05:56:51;95835.53;;;19.53;100.00
39141;BME280;24875;48.436;10.298;2022-08-19T05:59:19;95843.28;;;19.54;100.00
39141;BME280;24875;48.436;10.298;2022-08-19T06:01:47;95853.00;;;19.44;100.00
39141;BME280;24875;48.436;10.298;2022-08-19T06:04:16;95849.09;;;19.51;100.00
39141;BME280;24875;48.436;10.298;2022-08-19T06:06:44;95852.19;;;19.59;100.00
39141;BME280;24875;48.436;10.298;2022-08-19T06:09:11;95842.47;;;19.54;100.00
39141;BME280;24875;48.436;10.298;2022-08-19T06:11:40;95838.25;;;19.57;100.00
39141;BME280;24875;48.436;10.298;2022-08-19T06:14:13;95832.75;;;19.48;100.00
39141;BME280;24875;48.436;10.298;2022-08-19T06:16:41;95831.28;;;19.40;100.00
39141;BME280;24875;48.436;10.298;2022-08-19T06:19:09;95826.22;;;19.11;100.00
39141;BME280;24875;48.436;10.298;2022-08-19T06:21:39;95832.47;;;19.05;100.00
39141;BME280;24875;48.436;10.298;2022-08-19T06:24:08;95825.72;;;19.14;100.00
39141;BME280;24875;48.436;10.298;2022-08-19T06:26:35;95825.06;;;19.07;100.00
39141;BME280;24875;48.436;10.298;2022-08-19T06:29:03;95816.03;;;18.96;100.00
39141;BME280;24875;48.436;10.298;2022-08-19T06:31:34;95815.94;;;18.92;100.00
39141;BME280;24875;48.436;10.298;2022-08-19T06:34:02;95823.97;;;18.80;100.00
39141;BME280;24875;48.436;10.298;2022-08-19T06:36:35;95814.69;;;18.83;100.00
39141;BME280;24875;48.436;10.298;2022-08-19T06:39:05;95817.66;;;18.86;100.00
39141;BME280;24875;48.436;10.298;2022-08-19T06:41:34;95826.25;;;18.88;100.00
39141;BME280;24875;48.436;10.298;2022-08-19T06:44:02;95824.28;;;18.84;100.00
39141;BME280;24875;48.436;10.298;2022-08-19T06:46:28;95824.31;;;18.72;100.00
39141;BME280;24875;48.436;10.298;2022-08-19T06:48:57;95829.19;;;18.87;100.00
39141;BME280;24875;48.436;10.298;2022-08-19T06:51:24;95825.97;;;18.73;100.00
39141;BME280;24875;48.436;10.298;2022-08-19T06:53:53;95829.78;;;18.77;100.00
39141;BME280;24875;48.436;10.298;2022-08-19T06:56:23;95837.16;;;18.98;100.00
39141;BME280;24875;48.436;10.298;2022-08-19T06:58:55;95839.63;;;18.88;100.00
39141;BME280;24875;48.436;10.298;2022-08-19T07:01:22;95844.09;;;18.99;100.00
39141;BME280;24875;48.436;10.298;2022-08-19T07:03:48;95847.00;;;18.97;100.00
39141;BME280;24875;48.436;10.298;2022-08-19T07:06:17;95844.03;;;19.22;100.00
39141;BME280;24875;48.436;10.298;2022-08-19T07:08:46;95849.53;;;19.04;100.00
39141;BME280;24875;48.436;10.298;2022-08-19T07:11:15;95850.34;;;19.16;100.00
39141;BME280;24875;48.436;10.298;2022-08-19T07:13:43;95851.41;;;19.03;100.00
39141;BME280;24875;48.436;10.298;2022-08-19T07:16:13;95854.19;;;19.08;100.00
39141;BME280;24875;48.436;10.298;2022-08-19T07:18:40;95855.69;;;19.04;100.00
39141;BME280;24875;48.436;10.298;2022-08-19T07:21:09;95850.25;;;19.11;100.00
39141;BME280;24875;48.436;10.298;2022-08-19T07:23:37;95853.00;;;19.16;100.00
39141;BME280;24875;48.436;10.298;2022-08-19T07:26:07;95850.94;;;18.95;100.00
39141;BME280;24875;48.436;10.298;2022-08-19T07:28:34;95854.19;;;19.08;100.00
39141;BME280;24875;48.436;10.298;2022-08-19T07:31:04;95855.50;;;19.06;100.00
39141;BME280;24875;48.436;10.298;2022-08-19T07:33:31;95857.44;;;19.10;100.00
39141;BME280;24875;48.436;10.298;2022-08-19T07:35:58;95860.53;;;19.19;100.00
39141;BME280;24875;48.436;10.298;2022-08-19T07:38:25;95856.94;;;19.25;100.00
39141;BME280;24875;48.436;10.298;2022-08-19T07:40:53;95850.88;;;19.46;100.00
39141;BME280;24875;48.436;10.298;2022-08-19T07:43:19;95848.81;;;19.20;100.00
39141;BME280;24875;48.436;10.298;2022-08-19T07:45:48;95851.25;;;19.21;100.00
39141;BME280;24875;48.436;10.298;2022-08-19T07:48:14;95856.34;;;19.23;100.00
39141;BME280;24875;48.436;10.298;2022-08-19T07:50:41;95861.97;;;19.38;100.00
39141;BME280;24875;48.436;10.298;2022-08-19T07:53:07;95860.06;;;19.22;100.00
39141;BME280;24875;48.436;10.298;2022-08-19T07:55:34;95861.03;;;19.04;100.00
39141;BME280;24875;48.436;10.298;2022-08-19T07:58:02;95863.13;;;19.14;100.00
39141;BME280;24875;48.436;10.298;2022-08-19T08:00:30;95868.69;;;19.12;100.00
39141;BME280;24875;48.436;10.298;2022-08-19T08:02:56;95860.75;;;18.78;100.00
39141;BME280;24875;48.436;10.298;2022-08-19T08:05:23;95863.06;;;18.86;100.00
39141;BME280;24875;48.436;10.298;2022-08-19T08:08:08;95865.94;;;18.96;100.00
39141;BME280;24875;48.436;10.298;2022-08-19T08:10:52;95871.88;;;18.98;100.00
39141;BME280;24875;48.436;10.298;2022-08-19T08:13:20;95874.06;;;19.01;100.00
39141;BME280;24875;48.436;10.298;2022-08-19T08:15:46;95869.00;;;18.88;100.00
39141;BME280;24875;48.436;10.298;2022-08-19T08:18:13;95874.00;;;18.73;100.00
39141;BME280;24875;48.436;10.298;2022-08-19T08:20:39;95873.19;;;18.84;100.00
39141;BME280;24875;48.436;10.298;2022-08-19T08:23:06;95869.81;;;18.77;100.00
39141;BME280;24875;48.436;10.298;2022-08-19T08:25:51;95873.91;;;18.68;100.00
39141;BME280;24875;48.436;10.298;2022-08-19T08:28:21;95870.97;;;18.70;100.00
39141;BME280;24875;48.436;10.298;2022-08-19T08:30:48;95855.69;;;18.65;100.00
39141;BME280;24875;48.436;10.298;2022-08-19T08:33:17;95853.63;;;18.67;100.00
39141;BME280;24875;48.436;10.298;2022-08-19T08:35:44;95857.38;;;18.43;100.00
39141;BME280;24875;48.436;10.298;2022-08-19T08:38:11;95861.72;;;18.61;100.00
39141;BME280;24875;48.436;10.298;2022-08-19T08:40:43;95864.28;;;18.67;100.00
39141;BME280;24875;48.436;10.298;2022-08-19T08:43:18;95861.13;;;18.70;100.00
39141;BME280;24875;48.436;10.298;2022-08-19T08:45:55;95857.53;;;18.76;100.00
39141;BME280;24875;48.436;10.298;2022-08-19T08:48:25;95863.44;;;18.78;100.00
39141;BME280;24875;48.436;10.298;2022-08-19T08:50:59;95872.84;;;18.81;100.00
39141;BME280;24875;48.436;10.298;2022-08-19T08:53:27;95868.78;;;18.78;100.00
39141;BME280;24875;48.436;10.298;2022-08-19T08:55:54;95871.56;;;18.83;100.00
39141;BME280;24875;48.436;10.298;2022-08-19T08:58:28;95872.56;;;18.93;100.00
39141;BME280;24875;48.436;10.298;2022-08-19T09:00:58;95878.72;;;18.94;100.00
39141;BME280;24875;48.436;10.298;2022-08-19T09:03:26;95873.38;;;18.94;100.00
39141;BME280;24875;48.436;10.298;2022-08-19T09:05:59;95882.53;;;18.98;100.00
39141;BME280;24875;48.436;10.298;2022-08-19T09:08:35;95891.16;;;18.89;100.00
39141;BME280;24875;48.436;10.298;2022-08-19T09:11:06;95878.53;;;18.84;100.00
39141;BME280;24875;48.436;10.298;2022-08-19T09:13:40;95877.56;;;18.90;100.00
39141;BME280;24875;48.436;10.298;2022-08-19T09:16:12;95876.50;;;18.91;100.00
39141;BME280;24875;48.436;10.298;2022-08-19T09:18:42;95876.63;;;18.96;100.00
39141;BME280;24875;48.436;10.298;2022-08-19T09:21:09;95874.06;;;19.01;100.00
39141;BME280;24875;48.436;10.298;2022-08-19T09:23:36;95876.13;;;18.99;100.00
39141;BME280;24875;48.436;10.298;2022-08-19T09:26:07;95880.28;;;19.18;100.00
39141;BME280;24875;48.436;10.298;2022-08-19T09:28:34;95886.59;;;19.00;100.00
39141;BME280;24875;48.436;10.298;2022-08-19T09:31:01;95889.53;;;19.27;100.00
39141;BME280;24875;48.436;10.298;2022-08-19T09:33:29;95875.34;;;19.38;100.00
39141;BME280;24875;48.436;10.298;2022-08-19T09:36:07;95876.91;;;19.50;100.00
39141;BME280;24875;48.436;10.298;2022-08-19T09:38:34;95877.09;;;19.32;100.00
39141;BME280;24875;48.436;10.298;2022-08-19T09:41:04;95875.69;;;19.41;100.00
39141;BME280;24875;48.436;10.298;2022-08-19T09:43:31;95878.75;;;19.50;100.00
39141;BME280;24875;48.436;10.298;2022-08-19T09:45:59;95888.16;;;19.52;100.00
39141;BME280;24875;48.436;10.298;2022-08-19T09:48:26;95891.09;;;19.67;100.00
39141;BME280;24875;48.436;10.298;2022-08-19T09:50:54;95886.81;;;19.82;100.00
39141;BME280;24875;48.436;10.298;2022-08-19T09:53:20;95892.66;;;19.79;100.00
39141;BME280;24875;48.436;10.298;2022-08-19T09:55:48;95890.38;;;19.88;100.00
39141;BME280;24875;48.436;10.298;2022-08-19T09:58:15;95889.28;;;20.00;100.00
39141;BME280;24875;48.436;10.298;2022-08-19T10:00:41;95902.16;;;20.03;100.00
39141;BME280;24875;48.436;10.298;2022-08-19T10:03:08;95893.84;;;20.00;100.00
39141;BME280;24875;48.436;10.298;2022-08-19T10:05:35;95897.97;;;19.91;100.00
39141;BME280;24875;48.436;10.298;2022-08-19T10:08:18;95902.34;;;19.97;100.00
39141;BME280;24875;48.436;10.298;2022-08-19T10:10:45;95907.22;;;19.72;100.00
39141;BME280;24875;48.436;10.298;2022-08-19T10:13:15;95904.16;;;19.80;100.00
39141;BME280;24875;48.436;10.298;2022-08-19T10:15:42;95905.53;;;19.82;100.00
39141;BME280;24875;48.436;10.298;2022-08-19T10:18:08;95909.16;;;19.76;100.00
39141;BME280;24875;48.436;10.298;2022-08-19T10:20:35;95914.03;;;19.91;100.00
39141;BME280;24875;48.436;10.298;2022-08-19T10:23:02;95911.94;;;19.81;100.00
39141;BME280;24875;48.436;10.298;2022-08-19T10:25:31;95902.59;;;19.95;100.00
39141;BME280;24875;48.436;10.298;2022-08-19T10:27:59;95905.53;;;19.82;100.00
39141;BME280;24875;48.436;10.298;2022-08-19T10:30:25;95915.09;;;19.78;100.00
39141;BME280;24875;48.436;10.298;2022-08-19T10:32:52;95910.56;;;19.79;100.00
39141;BME280;24875;48.436;10.298;2022-08-19T10:35:19;95922.06;;;19.79;100.00
39141;BME280;24875;48.436;10.298;2022-08-19T10:37:45;95918.81;;;19.77;100.00
39141;BME280;24875;48.436;10.298;2022-08-19T10:40:12;95910.09;;;19.82;100.00
39141;BME280;24875;48.436;10.298;2022-08-19T10:42:40;95924.34;;;19.87;100.00
39141;BME280;24875;48.436;10.298;2022-08-19T10:45:07;95915.28;;;19.88;100.00
39141;BME280;24875;48.436;10.298;2022-08-19T10:47:34;95923.38;;;19.77;100.00
39141;BME280;24875;48.436;10.298;2022-08-19T10:50:02;95917.53;;;19.80;100.00
39141;BME280;24875;48.436;10.298;2022-08-19T10:52:48;95918.31;;;19.80;100.00
39141;BME280;24875;48.436;10.298;2022-08-19T10:55:17;95913.22;;;19.79;100.00
39141;BME280;24875;48.436;10.298;2022-08-19T10:58:02;95916.72;;;19.79;100.00
39141;BME280;24875;48.436;10.298;2022-08-19T11:00:29;95911.41;;;19.52;100.00
39141;BME280;24875;48.436;10.298;2022-08-19T11:02:56;95914.91;;;19.68;100.00
39141;BME280;24875;48.436;10.298;2022-08-19T11:05:22;95907.94;;;19.67;100.00
39141;BME280;24875;48.436;10.298;2022-08-19T11:07:49;95910.81;;;19.50;100.00
39141;BME280;24875;48.436;10.298;2022-08-19T11:10:17;95908.34;;;19.59;100.00
39141;BME280;24875;48.436;10.298;2022-08-19T11:12:44;95915.41;;;19.38;100.00
39141;BME280;24875;48.436;10.298;2022-08-19T11:15:13;95919.88;;;19.49;100.00
39141;BME280;24875;48.436;10.298;2022-08-19T11:17:40;95910.78;;;19.33;100.00
39141;BME280;24875;48.436;10.298;2022-08-19T11:20:09;95916.50;;;19.53;100.00
39141;BME280;24875;48.436;10.298;2022-08-19T11:22:36;95916.94;;;19.34;100.00
39141;BME280;24875;48.436;10.298;2022-08-19T11:25:03;95921.00;;;19.36;100.00
39141;BME280;24875;48.436;10.298;2022-08-19T11:27:29;95918.47;;;19.30;100.00
39141;BME280;24875;48.436;10.298;2022-08-19T11:29:56;95911.84;;;19.32;100.00
39141;BME280;24875;48.436;10.298;2022-08-19T11:32:24;95910.81;;;19.50;100.00
39141;BME280;24875;48.436;10.298;2022-08-19T11:34:50;95913.03;;;19.25;100.00
39141;BME280;24875;48.436;10.298;2022-08-19T11:37:17;95919.88;;;19.32;100.00
39141;BME280;24875;48.436;10.298;2022-08-19T11:39:43;95920.16;;;19.36;100.00
39141;BME280;24875;48.436;10.298;2022-08-19T11:42:10;95916.31;;;19.43;100.00
39141;BME280;24875;48.436;10.298;2022-08-19T11:44:54;95923.91;;;19.35;100.00
39141;BME280;24875;48.436;10.298;2022-08-19T11:47:21;95927.03;;;19.32;100.00
39141;BME280;24875;48.436;10.298;2022-08-19T11:49:49;95928.78;;;19.38;100.00
39141;BME280;24875;48.436;10.298;2022-08-19T11:52:16;95921.81;;;19.37;100.00
39141;BME280;24875;48.436;10.298;2022-08-19T11:54:43;95925.66;;;19.29;100.00
39141;BME280;24875;48.436;10.298;2022-08-19T11:57:09;95920.16;;;19.36;100.00
39141;BME280;24875;48.436;10.298;2022-08-19T11:59:36;95921.97;;;19.19;100.00
39141;BME280;24875;48.436;10.298;2022-08-19T12:02:02;95924.16;;;19.22;100.00
39141;BME280;24875;48.436;10.298;2022-08-19T12:04:29;95930.94;;;19.13;100.00
39141;BME280;24875;48.436;10.298;2022-08-19T12:06:57;95925.81;;;19.23;100.00
39141;BME280;24875;48.436;10.298;2022-08-19T12:09:23;95930.44;;;19.27;100.00
39141;BME280;24875;48.436;10.298;2022-08-19T12:11:50;95938.25;;;19.17;100.00
39141;BME280;24875;48.436;10.298;2022-08-19T12:14:17;95932.91;;;19.17;100.00
39141;BME280;24875;48.436;10.298;2022-08-19T12:16:45;95928.44;;;19.34;100.00
39141;BME280;24875;48.436;10.298;2022-08-19T12:19:11;95941.00;;;19.34;100.00
39141;BME280;24875;48.436;10.298;2022-08-19T12:21:38;95938.78;;;19.31;100.00
39141;BME280;24875;48.436;10.298;2022-08-19T12:24:07;95936.22;;;19.36;100.00
39141;BME280;24875;48.436;10.298;2022-08-19T12:26:33;95944.47;;;19.34;100.00
39141;BME280;24875;48.436;10.298;2022-08-19T12:29:00;95933.25;;;19.21;100.00
39141;BME280;24875;48.436;10.298;2022-08-19T12:31:27;95940.13;;;19.45;100.00
39141;BME280;24875;48.436;10.298;2022-08-19T12:33:54;95935.97;;;19.37;100.00
39141;BME280;24875;48.436;10.298;2022-08-19T12:36:21;95937.50;;;19.33;100.00
39141;BME280;24875;48.436;10.298;2022-08-19T12:38:48;95939.25;;;19.28;100.00
39141;BME280;24875;48.436;10.298;2022-08-19T12:41:16;95944.31;;;19.41;100.00
39141;BME280;24875;48.436;10.298;2022-08-19T12:43:43;95939.66;;;19.20;100.00
39141;BME280;24875;48.436;10.298;2022-08-19T12:46:11;95943.41;;;19.35;100.00